sensor_id;sensor_type;location;lat;lon;timestamp;P1;durP1;ratioP1;P2;durP2;ratioP2
5163;SDS011;2601;50.224;10.126;2023-05-06T00:00:54;152.40;;;12.40;;
5163;SDS011;2601;50.224;10.126;2023-05-06T00:03:19;150.70;;;10.40;;
5163;SDS011;2601;50.224;10.126;2023-05-06T00:05:45;151.20;;;10.03;;
5163;SDS011;2601;50.224;10.126;2023-05-06T00:08:11;151.07;;;10.30;;
5163;SDS011;2601;50.224;10.126;2023-05-06T00:10:37;151.13;;;10.33;;
5163;SDS011;2601;50.224;10.126;2023-05-06T00:13:02;152.87;;;10.53;;
5163;SDS011;2601;50.224;10.126;2023-05-06T00:15:28;151.77;;;10.53;;
5163;SDS011;2601;50.224;10.126;2023-05-06T00:17:54;152.47;;;12.53;;
5163;SDS011;2601;50.224;10.126;2023-05-06T00:20:20;153.57;;;11.60;;
5163;SDS011;2601;50.224;10.126;2023-05-06T00:22:46;153.00;;;10.90;;
5163;SDS011;2601;50.224;10.126;2023-05-06T00:25:12;152.40;;;10.83;;
5163;SDS011;2601;50.224;10.126;2023-05-06T00:27:37;153.33;;;10.50;;
5163;SDS011;2601;50.224;10.126;2023-05-06T00:30:03;153.47;;;11.07;;
5163;SDS011;2601;50.224;10.126;2023-05-06T00:32:29;151.57;;;10.50;;
5163;SDS011;2601;50.224;10.126;2023-05-06T00:34:55;152.13;;;10.93;;
5163;SDS011;2601;50.224;10.126;2023-05-06T00:37:20;152.40;;;11.10;;
5163;SDS011;2601;50.224;10.126;2023-05-06T00:39:46;152.37;;;10.83;;
5163;SDS011;2601;50.224;10.126;2023-05-06T00:42:11;154.60;;;10.90;;
5163;SDS011;2601;50.224;10.126;2023-05-06T00:44:37;152.60;;;10.80;;
5163;SDS011;2601;50.224;10.126;2023-05-06T00:47:02;151.97;;;10.20;;
5163;SDS011;2601;50.224;10.126;2023-05-06T00:49:29;153.17;;;11.53;;
5163;SDS011;2601;50.224;10.126;2023-05-06T00:51:55;152.63;;;12.27;;
5163;SDS011;2601;50.224;10.126;2023-05-06T00:54:23;151.87;;;11.10;;
5163;SDS011;2601;50.224;10.126;2023-05-06T00:56:50;154.07;;;11.10;;
5163;SDS011;2601;50.224;10.126;2023-05-06T00:59:15;151.90;;;11.60;;
5163;SDS011;2601;50.224;10.126;2023-05-06T01:01:41;154.67;;;11.60;;
5163;SDS011;2601;50.224;10.126;2023-05-06T01:04:07;153.90;;;10.30;;
5163;SDS011;2601;50.224;10.126;2023-05-06T01:06:49;151.17;;;10.30;;
5163;SDS011;2601;50.224;10.126;2023-05-06T01:12:20;151.70;;;10.90;;
5163;SDS011;2601;50.224;10.126;2023-05-06T01:14:56;154.07;;;12.23;;
5163;SDS011;2601;50.224;10.126;2023-05-06T01:17:38;152.57;;;11.80;;
5163;SDS011;2601;50.224;10.126;2023-05-06T01:20:08;151.80;;;11.10;;
5163;SDS011;2601;50.224;10.126;2023-05-06T01:22:36;152.00;;;11.53;;
5163;SDS011;2601;50.224;10.126;2023-05-06T01:25:02;152.57;;;11.30;;
5163;SDS011;2601;50.224;10.126;2023-05-06T01:27:28;152.80;;;10.57;;
5163;SDS011;2601;50.224;10.126;2023-05-06T01:29:54;153.20;;;12.63;;
5163;SDS011;2601;50.224;10.126;2023-05-06T01:32:30;152.87;;;11.67;;
5163;SDS011;2601;50.224;10.126;2023-05-06T01:35:35;154.73;;;13.10;;
5163;SDS011;2601;50.224;10.126;2023-05-06T01:40:50;154.50;;;11.40;;
5163;SDS011;2601;50.224;10.126;2023-05-06T01:43:19;153.40;;;11.93;;
5163;SDS011;2601;50.224;10.126;2023-05-06T01:45:45;153.60;;;12.40;;
5163;SDS011;2601;50.224;10.126;2023-05-06T01:48:18;152.10;;;11.83;;
5163;SDS011;2601;50.224;10.126;2023-05-06T01:50:49;151.67;;;11.17;;
5163;SDS011;2601;50.224;10.126;2023-05-06T01:53:15;153.20;;;12.13;;
5163;SDS011;2601;50.224;10.126;2023-05-06T01:55:41;152.17;;;11.00;;
5163;SDS011;2601;50.224;10.126;2023-05-06T01:58:07;150.40;;;10.07;;
5163;SDS011;2601;50.224;10.126;2023-05-06T02:00:32;151.20;;;10.27;;
5163;SDS011;2601;50.224;10.126;2023-05-06T02:02:58;155.97;;;12.00;;
5163;SDS011;2601;50.224;10.126;2023-05-06T02:05:23;154.33;;;11.67;;
5163;SDS011;2601;50.224;10.126;2023-05-06T02:07:49;152.77;;;10.50;;
5163;SDS011;2601;50.224;10.126;2023-05-06T02:10:15;154.20;;;12.20;;
5163;SDS011;2601;50.224;10.126;2023-05-06T02:12:41;151.53;;;10.60;;
5163;SDS011;2601;50.224;10.126;2023-05-06T02:15:06;151.63;;;10.97;;
5163;SDS011;2601;50.224;10.126;2023-05-06T02:17:33;151.87;;;10.80;;
5163;SDS011;2601;50.224;10.126;2023-05-06T02:20:00;151.30;;;10.87;;
5163;SDS011;2601;50.224;10.126;2023-05-06T02:22:25;152.33;;;11.30;;
5163;SDS011;2601;50.224;10.126;2023-05-06T02:24:51;152.10;;;10.80;;
5163;SDS011;2601;50.224;10.126;2023-05-06T02:27:16;153.43;;;11.23;;
5163;SDS011;2601;50.224;10.126;2023-05-06T02:29:42;152.57;;;11.07;;
5163;SDS011;2601;50.224;10.126;2023-05-06T02:32:07;152.40;;;11.70;;
5163;SDS011;2601;50.224;10.126;2023-05-06T02:34:33;154.77;;;12.00;;
5163;SDS011;2601;50.224;10.126;2023-05-06T02:36:58;152.00;;;11.03;;
5163;SDS011;2601;50.224;10.126;2023-05-06T02:39:24;152.80;;;11.30;;
5163;SDS011;2601;50.224;10.126;2023-05-06T02:41:49;152.60;;;11.77;;
5163;SDS011;2601;50.224;10.126;2023-05-06T02:44:15;153.27;;;11.63;;
5163;SDS011;2601;50.224;10.126;2023-05-06T02:46:40;151.27;;;10.57;;
5163;SDS011;2601;50.224;10.126;2023-05-06T02:49:07;158.90;;;11.40;;
5163;SDS011;2601;50.224;10.126;2023-05-06T02:51:33;153.07;;;10.80;;
5163;SDS011;2601;50.224;10.126;2023-05-06T02:53:58;151.87;;;11.30;;
5163;SDS011;2601;50.224;10.126;2023-05-06T02:56:24;151.67;;;11.23;;
5163;SDS011;2601;50.224;10.126;2023-05-06T02:58:49;153.07;;;11.53;;
5163;SDS011;2601;50.224;10.126;2023-05-06T03:01:15;154.00;;;11.13;;
5163;SDS011;2601;50.224;10.126;2023-05-06T03:03:41;153.57;;;12.27;;
5163;SDS011;2601;50.224;10.126;2023-05-06T03:06:06;152.50;;;11.67;;
5163;SDS011;2601;50.224;10.126;2023-05-06T03:08:32;153.10;;;10.90;;
5163;SDS011;2601;50.224;10.126;2023-05-06T03:10:57;152.47;;;11.90;;
5163;SDS011;2601;50.224;10.126;2023-05-06T03:13:23;158.37;;;11.90;;
5163;SDS011;2601;50.224;10.126;2023-05-06T03:15:52;151.37;;;10.60;;
5163;SDS011;2601;50.224;10.126;2023-05-06T03:18:18;151.13;;;11.13;;
5163;SDS011;2601;50.224;10.126;2023-05-06T03:20:43;152.03;;;11.10;;
5163;SDS011;2601;50.224;10.126;2023-05-06T03:23:09;151.17;;;10.80;;
5163;SDS011;2601;50.224;10.126;2023-05-06T03:25:35;152.57;;;11.77;;
5163;SDS011;2601;50.224;10.126;2023-05-06T03:28:00;154.33;;;12.33;;
5163;SDS011;2601;50.224;10.126;2023-05-06T03:30:26;153.00;;;11.27;;
5163;SDS011;2601;50.224;10.126;2023-05-06T03:32:51;151.97;;;11.80;;
5163;SDS011;2601;50.224;10.126;2023-05-06T03:35:18;152.47;;;11.63;;
5163;SDS011;2601;50.224;10.126;2023-05-06T03:37:44;151.17;;;10.73;;
5163;SDS011;2601;50.224;10.126;2023-05-06T03:40:09;151.80;;;11.20;;
5163;SDS011;2601;50.224;10.126;2023-05-06T03:42:35;151.70;;;11.33;;
5163;SDS011;2601;50.224;10.126;2023-05-06T03:45:01;153.10;;;11.83;;
5163;SDS011;2601;50.224;10.126;2023-05-06T03:47:27;152.87;;;11.20;;
5163;SDS011;2601;50.224;10.126;2023-05-06T03:49:52;151.47;;;10.83;;
5163;SDS011;2601;50.224;10.126;2023-05-06T03:52:18;153.07;;;10.90;;
5163;SDS011;2601;50.224;10.126;2023-05-06T03:54:43;150.73;;;10.73;;
5163;SDS011;2601;50.224;10.126;2023-05-06T03:57:09;151.27;;;10.67;;
5163;SDS011;2601;50.224;10.126;2023-05-06T03:59:34;153.63;;;11.83;;
5163;SDS011;2601;50.224;10.126;2023-05-06T04:02:00;151.67;;;11.80;;
5163;SDS011;2601;50.224;10.126;2023-05-06T04:04:26;156.27;;;10.53;;
5163;SDS011;2601;50.224;10.126;2023-05-06T04:06:52;154.17;;;11.00;;
5163;SDS011;2601;50.224;10.126;2023-05-06T04:09:17;153.10;;;11.43;;
5163;SDS011;2601;50.224;10.126;2023-05-06T04:11:43;153.03;;;10.90;;
5163;SDS011;2601;50.224;10.126;2023-05-06T04:14:08;154.70;;;10.27;;
5163;SDS011;2601;50.224;10.126;2023-05-06T04:16:34;152.43;;;11.07;;
5163;SDS011;2601;50.224;10.126;2023-05-06T04:19:00;154.97;;;11.37;;
5163;SDS011;2601;50.224;10.126;2023-05-06T04:21:25;151.93;;;11.20;;
5163;SDS011;2601;50.224;10.126;2023-05-06T04:23:51;152.87;;;12.23;;
5163;SDS011;2601;50.224;10.126;2023-05-06T04:26:16;152.93;;;11.73;;
5163;SDS011;2601;50.224;10.126;2023-05-06T04:28:42;154.17;;;12.23;;
5163;SDS011;2601;50.224;10.126;2023-05-06T04:31:07;153.87;;;10.67;;
5163;SDS011;2601;50.224;10.126;2023-05-06T04:33:33;151.87;;;10.70;;
5163;SDS011;2601;50.224;10.126;2023-05-06T04:35:59;151.50;;;11.10;;
5163;SDS011;2601;50.224;10.126;2023-05-06T04:38:24;153.70;;;12.00;;
5163;SDS011;2601;50.224;10.126;2023-05-06T04:40:54;152.60;;;12.70;;
5163;SDS011;2601;50.224;10.126;2023-05-06T04:43:20;152.57;;;11.50;;
5163;SDS011;2601;50.224;10.126;2023-05-06T04:45:46;153.27;;;11.20;;
5163;SDS011;2601;50.224;10.126;2023-05-06T04:48:17;154.80;;;13.13;;
5163;SDS011;2601;50.224;10.126;2023-05-06T04:50:43;156.97;;;11.70;;
5163;SDS011;2601;50.224;10.126;2023-05-06T04:53:09;152.73;;;11.50;;
5163;SDS011;2601;50.224;10.126;2023-05-06T04:55:35;151.90;;;11.07;;
5163;SDS011;2601;50.224;10.126;2023-05-06T04:58:00;152.97;;;12.00;;
5163;SDS011;2601;50.224;10.126;2023-05-06T05:00:26;152.77;;;11.43;;
5163;SDS011;2601;50.224;10.126;2023-05-06T05:02:52;154.30;;;11.70;;
5163;SDS011;2601;50.224;10.126;2023-05-06T05:05:18;155.87;;;13.33;;
5163;SDS011;2601;50.224;10.126;2023-05-06T05:07:43;151.70;;;11.10;;
5163;SDS011;2601;50.224;10.126;2023-05-06T05:10:09;156.37;;;11.37;;
5163;SDS011;2601;50.224;10.126;2023-05-06T05:12:35;152.70;;;11.67;;
5163;SDS011;2601;50.224;10.126;2023-05-06T05:15:01;153.27;;;11.00;;
5163;SDS011;2601;50.224;10.126;2023-05-06T05:17:27;151.97;;;11.30;;
5163;SDS011;2601;50.224;10.126;2023-05-06T05:19:52;155.00;;;10.70;;
5163;SDS011;2601;50.224;10.126;2023-05-06T05:22:18;156.10;;;11.50;;
5163;SDS011;2601;50.224;10.126;2023-05-06T05:24:43;152.03;;;10.90;;
5163;SDS011;2601;50.224;10.126;2023-05-06T05:27:09;157.17;;;11.37;;
5163;SDS011;2601;50.224;10.126;2023-05-06T05:29:35;151.27;;;10.97;;
5163;SDS011;2601;50.224;10.126;2023-05-06T05:32:01;155.50;;;12.00;;
5163;SDS011;2601;50.224;10.126;2023-05-06T05:34:26;152.43;;;11.23;;
5163;SDS011;2601;50.224;10.126;2023-05-06T05:36:52;152.60;;;12.00;;
5163;SDS011;2601;50.224;10.126;2023-05-06T05:39:17;153.77;;;12.30;;
5163;SDS011;2601;50.224;10.126;2023-05-06T05:41:43;155.07;;;12.10;;
5163;SDS011;2601;50.224;10.126;2023-05-06T05:44:08;172.13;;;15.60;;
5163;SDS011;2601;50.224;10.126;2023-05-06T05:46:34;155.50;;;14.13;;
5163;SDS011;2601;50.224;10.126;2023-05-06T05:49:00;158.63;;;15.03;;
5163;SDS011;2601;50.224;10.126;2023-05-06T05:51:25;157.97;;;15.60;;
5163;SDS011;2601;50.224;10.126;2023-05-06T05:53:51;159.33;;;15.77;;
5163;SDS011;2601;50.224;10.126;2023-05-06T05:56:16;159.13;;;16.00;;
5163;SDS011;2601;50.224;10.126;2023-05-06T05:58:42;159.37;;;15.07;;
5163;SDS011;2601;50.224;10.126;2023-05-06T06:01:07;159.97;;;15.60;;
5163;SDS011;2601;50.224;10.126;2023-05-06T06:03:33;158.90;;;15.20;;
5163;SDS011;2601;50.224;10.126;2023-05-06T06:05:59;161.20;;;16.37;;
5163;SDS011;2601;50.224;10.126;2023-05-06T06:08:25;161.90;;;15.87;;
5163;SDS011;2601;50.224;10.126;2023-05-06T06:10:50;158.63;;;15.67;;
5163;SDS011;2601;50.224;10.126;2023-05-06T06:13:16;158.17;;;15.03;;
5163;SDS011;2601;50.224;10.126;2023-05-06T06:15:42;164.60;;;15.60;;
5163;SDS011;2601;50.224;10.126;2023-05-06T06:18:07;164.80;;;13.73;;
5163;SDS011;2601;50.224;10.126;2023-05-06T06:20:34;156.30;;;14.60;;
5163;SDS011;2601;50.224;10.126;2023-05-06T06:22:59;158.97;;;16.10;;
5163;SDS011;2601;50.224;10.126;2023-05-06T06:25:25;167.13;;;15.60;;
5163;SDS011;2601;50.224;10.126;2023-05-06T06:27:51;163.37;;;21.37;;
5163;SDS011;2601;50.224;10.126;2023-05-06T06:30:18;165.60;;;14.50;;
5163;SDS011;2601;50.224;10.126;2023-05-06T06:32:51;158.77;;;14.03;;
5163;SDS011;2601;50.224;10.126;2023-05-06T06:35:17;156.73;;;14.43;;
5163;SDS011;2601;50.224;10.126;2023-05-06T06:37:44;158.50;;;15.20;;
5163;SDS011;2601;50.224;10.126;2023-05-06T06:40:10;159.83;;;13.33;;
5163;SDS011;2601;50.224;10.126;2023-05-06T06:42:36;156.90;;;14.47;;
5163;SDS011;2601;50.224;10.126;2023-05-06T06:45:02;156.77;;;13.20;;
5163;SDS011;2601;50.224;10.126;2023-05-06T06:47:29;154.67;;;13.33;;
5163;SDS011;2601;50.224;10.126;2023-05-06T06:49:55;155.33;;;12.43;;
5163;SDS011;2601;50.224;10.126;2023-05-06T06:52:20;155.53;;;13.50;;
5163;SDS011;2601;50.224;10.126;2023-05-06T06:54:46;157.40;;;12.80;;
5163;SDS011;2601;50.224;10.126;2023-05-06T06:57:11;154.37;;;13.27;;
5163;SDS011;2601;50.224;10.126;2023-05-06T06:59:37;157.57;;;15.70;;
5163;SDS011;2601;50.224;10.126;2023-05-06T07:02:02;157.77;;;14.20;;
5163;SDS011;2601;50.224;10.126;2023-05-06T07:04:28;153.73;;;12.37;;
5163;SDS011;2601;50.224;10.126;2023-05-06T07:06:54;159.67;;;13.50;;
5163;SDS011;2601;50.224;10.126;2023-05-06T07:09:20;155.60;;;12.67;;
5163;SDS011;2601;50.224;10.126;2023-05-06T07:11:46;155.70;;;13.23;;
5163;SDS011;2601;50.224;10.126;2023-05-06T07:14:11;154.87;;;12.93;;
5163;SDS011;2601;50.224;10.126;2023-05-06T07:16:37;156.37;;;12.87;;
5163;SDS011;2601;50.224;10.126;2023-05-06T07:19:03;154.37;;;12.90;;
5163;SDS011;2601;50.224;10.126;2023-05-06T07:21:28;153.17;;;12.30;;
5163;SDS011;2601;50.224;10.126;2023-05-06T07:23:56;153.83;;;12.17;;
5163;SDS011;2601;50.224;10.126;2023-05-06T07:26:22;154.87;;;14.10;;
5163;SDS011;2601;50.224;10.126;2023-05-06T07:28:48;157.20;;;12.20;;
5163;SDS011;2601;50.224;10.126;2023-05-06T07:31:14;155.30;;;12.87;;
5163;SDS011;2601;50.224;10.126;2023-05-06T07:33:40;153.80;;;12.43;;
5163;SDS011;2601;50.224;10.126;2023-05-06T07:36:06;154.77;;;12.73;;
5163;SDS011;2601;50.224;10.126;2023-05-06T07:38:32;156.00;;;13.70;;
5163;SDS011;2601;50.224;10.126;2023-05-06T07:40:57;153.97;;;13.27;;
5163;SDS011;2601;50.224;10.126;2023-05-06T07:43:23;153.07;;;12.37;;
5163;SDS011;2601;50.224;10.126;2023-05-06T07:45:49;154.77;;;14.10;;
5163;SDS011;2601;50.224;10.126;2023-05-06T07:48:14;152.57;;;11.60;;
5163;SDS011;2601;50.224;10.126;2023-05-06T07:50:40;152.47;;;10.90;;
5163;SDS011;2601;50.224;10.126;2023-05-06T07:53:05;158.40;;;12.57;;
5163;SDS011;2601;50.224;10.126;2023-05-06T07:55:31;154.27;;;12.07;;
5163;SDS011;2601;50.224;10.126;2023-05-06T07:57:57;154.07;;;11.83;;
5163;SDS011;2601;50.224;10.126;2023-05-06T08:00:22;153.07;;;11.57;;
5163;SDS011;2601;50.224;10.126;2023-05-06T08:02:48;152.43;;;11.70;;
5163;SDS011;2601;50.224;10.126;2023-05-06T08:05:13;153.40;;;11.87;;
5163;SDS011;2601;50.224;10.126;2023-05-06T08:07:39;154.17;;;12.13;;
5163;SDS011;2601;50.224;10.126;2023-05-06T08:10:05;152.53;;;12.07;;
5163;SDS011;2601;50.224;10.126;2023-05-06T08:12:33;155.87;;;11.93;;
5163;SDS011;2601;50.224;10.126;2023-05-06T08:14:59;160.40;;;12.50;;
5163;SDS011;2601;50.224;10.126;2023-05-06T08:17:25;155.17;;;13.13;;
5163;SDS011;2601;50.224;10.126;2023-05-06T08:19:51;153.47;;;11.37;;
5163;SDS011;2601;50.224;10.126;2023-05-06T08:22:17;152.80;;;12.07;;
5163;SDS011;2601;50.224;10.126;2023-05-06T08:24:42;153.07;;;11.67;;
5163;SDS011;2601;50.224;10.126;2023-05-06T08:27:08;153.47;;;12.13;;
5163;SDS011;2601;50.224;10.126;2023-05-06T08:29:33;155.33;;;10.90;;
5163;SDS011;2601;50.224;10.126;2023-05-06T08:31:59;155.70;;;11.60;;
5163;SDS011;2601;50.224;10.126;2023-05-06T08:34:25;156.20;;;12.60;;
5163;SDS011;2601;50.224;10.126;2023-05-06T08:36:50;160.87;;;12.77;;
5163;SDS011;2601;50.224;10.126;2023-05-06T08:39:16;158.10;;;11.50;;
5163;SDS011;2601;50.224;10.126;2023-05-06T08:41:45;153.87;;;11.07;;
5163;SDS011;2601;50.224;10.126;2023-05-06T08:44:14;153.57;;;12.33;;
5163;SDS011;2601;50.224;10.126;2023-05-06T08:46:42;155.90;;;11.60;;
5163;SDS011;2601;50.224;10.126;2023-05-06T08:49:11;152.13;;;10.40;;
5163;SDS011;2601;50.224;10.126;2023-05-06T08:51:37;153.20;;;11.60;;
5163;SDS011;2601;50.224;10.126;2023-05-06T08:54:03;153.93;;;12.03;;
5163;SDS011;2601;50.224;10.126;2023-05-06T08:56:31;158.37;;;12.33;;
5163;SDS011;2601;50.224;10.126;2023-05-06T08:58:58;154.50;;;11.70;;
5163;SDS011;2601;50.224;10.126;2023-05-06T09:01:25;153.63;;;12.07;;
5163;SDS011;2601;50.224;10.126;2023-05-06T09:03:54;155.13;;;11.93;;
5163;SDS011;2601;50.224;10.126;2023-05-06T09:06:21;158.10;;;12.43;;
5163;SDS011;2601;50.224;10.126;2023-05-06T09:08:47;154.53;;;11.67;;
5163;SDS011;2601;50.224;10.126;2023-05-06T09:11:19;154.20;;;12.10;;
5163;SDS011;2601;50.224;10.126;2023-05-06T09:13:47;154.27;;;12.33;;
5163;SDS011;2601;50.224;10.126;2023-05-06T09:16:26;157.07;;;11.67;;
5163;SDS011;2601;50.224;10.126;2023-05-06T09:18:53;154.60;;;12.07;;
5163;SDS011;2601;50.224;10.126;2023-05-06T09:21:18;152.77;;;11.50;;
5163;SDS011;2601;50.224;10.126;2023-05-06T09:23:44;153.27;;;11.20;;
5163;SDS011;2601;50.224;10.126;2023-05-06T09:26:10;153.90;;;11.37;;
5163;SDS011;2601;50.224;10.126;2023-05-06T09:28:36;154.50;;;11.80;;
5163;SDS011;2601;50.224;10.126;2023-05-06T09:31:02;155.17;;;12.00;;
5163;SDS011;2601;50.224;10.126;2023-05-06T09:33:27;153.70;;;11.80;;
5163;SDS011;2601;50.224;10.126;2023-05-06T09:35:53;154.93;;;12.10;;
5163;SDS011;2601;50.224;10.126;2023-05-06T09:38:19;151.53;;;11.27;;
5163;SDS011;2601;50.224;10.126;2023-05-06T09:40:45;153.30;;;11.73;;
5163;SDS011;2601;50.224;10.126;2023-05-06T09:43:11;151.37;;;10.83;;
5163;SDS011;2601;50.224;10.126;2023-05-06T09:45:37;153.97;;;11.20;;
5163;SDS011;2601;50.224;10.126;2023-05-06T09:48:03;153.00;;;11.27;;
5163;SDS011;2601;50.224;10.126;2023-05-06T09:50:31;159.10;;;12.00;;
5163;SDS011;2601;50.224;10.126;2023-05-06T09:52:56;151.97;;;10.80;;
5163;SDS011;2601;50.224;10.126;2023-05-06T09:55:24;163.57;;;10.70;;
5163;SDS011;2601;50.224;10.126;2023-05-06T09:57:51;152.13;;;11.17;;
5163;SDS011;2601;50.224;10.126;2023-05-06T10:00:17;155.00;;;10.80;;
5163;SDS011;2601;50.224;10.126;2023-05-06T10:02:43;151.57;;;11.27;;
5163;SDS011;2601;50.224;10.126;2023-05-06T10:05:10;155.80;;;12.03;;
5163;SDS011;2601;50.224;10.126;2023-05-06T10:07:36;153.37;;;11.13;;
5163;SDS011;2601;50.224;10.126;2023-05-06T10:10:03;154.00;;;11.70;;
5163;SDS011;2601;50.224;10.126;2023-05-06T10:12:32;156.07;;;10.63;;
5163;SDS011;2601;50.224;10.126;2023-05-06T10:15:00;158.73;;;12.57;;
5163;SDS011;2601;50.224;10.126;2023-05-06T10:17:25;152.00;;;10.63;;
5163;SDS011;2601;50.224;10.126;2023-05-06T10:19:59;156.27;;;13.70;;
5163;SDS011;2601;50.224;10.126;2023-05-06T10:25:29;155.17;;;11.67;;
5163;SDS011;2601;50.224;10.126;2023-05-06T10:27:58;156.93;;;12.93;;
5163;SDS011;2601;50.224;10.126;2023-05-06T10:30:25;153.67;;;12.83;;
5163;SDS011;2601;50.224;10.126;2023-05-06T10:32:54;153.57;;;11.33;;
5163;SDS011;2601;50.224;10.126;2023-05-06T10:36:06;152.00;;;11.50;;
5163;SDS011;2601;50.224;10.126;2023-05-06T10:38:18;153.57;;;11.40;;
5163;SDS011;2601;50.224;10.126;2023-05-06T10:40:48;154.70;;;11.23;;
5163;SDS011;2601;50.224;10.126;2023-05-06T10:46:02;152.03;;;11.60;;
5163;SDS011;2601;50.224;10.126;2023-05-06T10:48:30;154.10;;;11.90;;
5163;SDS011;2601;50.224;10.126;2023-05-06T10:53:53;154.23;;;11.30;;
5163;SDS011;2601;50.224;10.126;2023-05-06T10:56:19;152.70;;;10.73;;
5163;SDS011;2601;50.224;10.126;2023-05-06T10:58:46;159.20;;;10.80;;
5163;SDS011;2601;50.224;10.126;2023-05-06T11:01:13;155.53;;;11.47;;
5163;SDS011;2601;50.224;10.126;2023-05-06T11:03:40;155.90;;;11.43;;
5163;SDS011;2601;50.224;10.126;2023-05-06T11:06:07;154.57;;;12.27;;
5163;SDS011;2601;50.224;10.126;2023-05-06T11:08:33;154.97;;;11.90;;
5163;SDS011;2601;50.224;10.126;2023-05-06T11:10:59;153.47;;;11.90;;
5163;SDS011;2601;50.224;10.126;2023-05-06T11:13:25;156.47;;;12.53;;
5163;SDS011;2601;50.224;10.126;2023-05-06T11:15:53;157.67;;;13.70;;
5163;SDS011;2601;50.224;10.126;2023-05-06T11:26:13;155.03;;;12.80;;
5163;SDS011;2601;50.224;10.126;2023-05-06T11:28:46;155.17;;;11.93;;
5163;SDS011;2601;50.224;10.126;2023-05-06T11:31:13;153.30;;;11.50;;
5163;SDS011;2601;50.224;10.126;2023-05-06T11:33:44;154.37;;;12.20;;
5163;SDS011;2601;50.224;10.126;2023-05-06T11:36:14;156.47;;;12.00;;
5163;SDS011;2601;50.224;10.126;2023-05-06T11:38:45;159.43;;;13.07;;
5163;SDS011;2601;50.224;10.126;2023-05-06T11:41:14;158.13;;;13.80;;
5163;SDS011;2601;50.224;10.126;2023-05-06T11:43:49;155.30;;;13.33;;
5163;SDS011;2601;50.224;10.126;2023-05-06T11:46:19;156.53;;;13.67;;
5163;SDS011;2601;50.224;10.126;2023-05-06T11:48:47;161.50;;;12.43;;
5163;SDS011;2601;50.224;10.126;2023-05-06T11:51:13;155.30;;;11.97;;
5163;SDS011;2601;50.224;10.126;2023-05-06T11:53:38;154.47;;;13.23;;
5163;SDS011;2601;50.224;10.126;2023-05-06T11:56:04;155.27;;;13.57;;
5163;SDS011;2601;50.224;10.126;2023-05-06T11:58:30;157.83;;;13.20;;
5163;SDS011;2601;50.224;10.126;2023-05-06T12:00:56;154.47;;;12.57;;
5163;SDS011;2601;50.224;10.126;2023-05-06T12:03:27;155.20;;;12.93;;
5163;SDS011;2601;50.224;10.126;2023-05-06T12:05:54;155.43;;;12.53;;
5163;SDS011;2601;50.224;10.126;2023-05-06T12:08:20;158.10;;;12.70;;
5163;SDS011;2601;50.224;10.126;2023-05-06T12:10:51;154.37;;;12.97;;
5163;SDS011;2601;50.224;10.126;2023-05-06T12:13:19;155.90;;;12.43;;
5163;SDS011;2601;50.224;10.126;2023-05-06T12:15:45;154.93;;;13.30;;
5163;SDS011;2601;50.224;10.126;2023-05-06T12:18:12;154.27;;;13.13;;
5163;SDS011;2601;50.224;10.126;2023-05-06T12:20:38;154.87;;;12.50;;
5163;SDS011;2601;50.224;10.126;2023-05-06T12:23:07;155.47;;;13.70;;
5163;SDS011;2601;50.224;10.126;2023-05-06T12:25:34;159.90;;;13.07;;
5163;SDS011;2601;50.224;10.126;2023-05-06T12:28:00;154.77;;;12.53;;
5163;SDS011;2601;50.224;10.126;2023-05-06T12:30:29;155.37;;;13.60;;
5163;SDS011;2601;50.224;10.126;2023-05-06T12:32:59;153.87;;;12.60;;
5163;SDS011;2601;50.224;10.126;2023-05-06T12:37:52;153.90;;;12.20;;
5163;SDS011;2601;50.224;10.126;2023-05-06T12:40:18;153.67;;;11.97;;
5163;SDS011;2601;50.224;10.126;2023-05-06T12:42:43;152.57;;;11.77;;
5163;SDS011;2601;50.224;10.126;2023-05-06T12:45:12;153.20;;;11.37;;
5163;SDS011;2601;50.224;10.126;2023-05-06T12:47:39;154.80;;;12.03;;
5163;SDS011;2601;50.224;10.126;2023-05-06T12:50:29;153.77;;;12.83;;
5163;SDS011;2601;50.224;10.126;2023-05-06T12:52:59;159.47;;;19.47;;
5163;SDS011;2601;50.224;10.126;2023-05-06T12:55:25;156.60;;;11.47;;
5163;SDS011;2601;50.224;10.126;2023-05-06T12:57:51;153.80;;;11.60;;
5163;SDS011;2601;50.224;10.126;2023-05-06T13:00:17;157.37;;;12.87;;
5163;SDS011;2601;50.224;10.126;2023-05-06T13:02:43;156.30;;;12.03;;
5163;SDS011;2601;50.224;10.126;2023-05-06T13:05:09;153.07;;;11.17;;
5163;SDS011;2601;50.224;10.126;2023-05-06T13:07:35;155.07;;;11.60;;
5163;SDS011;2601;50.224;10.126;2023-05-06T13:10:01;152.97;;;12.33;;
5163;SDS011;2601;50.224;10.126;2023-05-06T13:12:27;154.80;;;12.30;;
5163;SDS011;2601;50.224;10.126;2023-05-06T13:14:53;151.70;;;10.77;;
5163;SDS011;2601;50.224;10.126;2023-05-06T13:17:19;153.67;;;11.07;;
5163;SDS011;2601;50.224;10.126;2023-05-06T13:19:44;154.37;;;11.83;;
5163;SDS011;2601;50.224;10.126;2023-05-06T13:22:10;153.17;;;10.60;;
5163;SDS011;2601;50.224;10.126;2023-05-06T13:24:36;156.27;;;11.10;;
5163;SDS011;2601;50.224;10.126;2023-05-06T13:27:01;162.20;;;12.30;;
5163;SDS011;2601;50.224;10.126;2023-05-06T13:29:27;165.77;;;12.60;;
5163;SDS011;2601;50.224;10.126;2023-05-06T13:31:53;154.87;;;11.50;;
5163;SDS011;2601;50.224;10.126;2023-05-06T13:34:19;157.63;;;11.47;;
5163;SDS011;2601;50.224;10.126;2023-05-06T13:36:45;154.27;;;11.23;;
5163;SDS011;2601;50.224;10.126;2023-05-06T13:39:13;156.83;;;12.10;;
5163;SDS011;2601;50.224;10.126;2023-05-06T13:41:40;159.70;;;11.70;;
5163;SDS011;2601;50.224;10.126;2023-05-06T13:44:18;157.87;;;12.90;;
5163;SDS011;2601;50.224;10.126;2023-05-06T13:46:44;157.33;;;14.10;;
5163;SDS011;2601;50.224;10.126;2023-05-06T13:49:10;156.87;;;11.90;;
5163;SDS011;2601;50.224;10.126;2023-05-06T13:51:35;155.87;;;11.87;;
5163;SDS011;2601;50.224;10.126;2023-05-06T13:54:01;155.37;;;11.50;;
5163;SDS011;2601;50.224;10.126;2023-05-06T13:56:27;157.03;;;11.43;;
5163;SDS011;2601;50.224;10.126;2023-05-06T13:58:53;153.50;;;11.53;;
5163;SDS011;2601;50.224;10.126;2023-05-06T14:01:19;156.73;;;12.13;;
5163;SDS011;2601;50.224;10.126;2023-05-06T14:03:45;157.77;;;12.43;;
5163;SDS011;2601;50.224;10.126;2023-05-06T14:06:10;155.77;;;12.70;;
5163;SDS011;2601;50.224;10.126;2023-05-06T14:08:36;155.47;;;11.87;;
5163;SDS011;2601;50.224;10.126;2023-05-06T14:11:01;153.50;;;11.67;;
5163;SDS011;2601;50.224;10.126;2023-05-06T14:13:29;158.13;;;11.87;;
5163;SDS011;2601;50.224;10.126;2023-05-06T14:15:55;156.77;;;12.43;;
5163;SDS011;2601;50.224;10.126;2023-05-06T14:18:21;153.77;;;11.00;;
5163;SDS011;2601;50.224;10.126;2023-05-06T14:20:46;154.77;;;11.53;;
5163;SDS011;2601;50.224;10.126;2023-05-06T14:23:12;152.67;;;11.10;;
5163;SDS011;2601;50.224;10.126;2023-05-06T14:25:38;157.60;;;11.83;;
5163;SDS011;2601;50.224;10.126;2023-05-06T14:28:04;155.47;;;12.23;;
5163;SDS011;2601;50.224;10.126;2023-05-06T14:30:30;157.17;;;12.10;;
5163;SDS011;2601;50.224;10.126;2023-05-06T14:32:56;156.07;;;11.30;;
5163;SDS011;2601;50.224;10.126;2023-05-06T14:35:22;157.50;;;11.10;;
5163;SDS011;2601;50.224;10.126;2023-05-06T14:37:48;155.17;;;11.87;;
5163;SDS011;2601;50.224;10.126;2023-05-06T14:40:14;156.57;;;10.70;;
5163;SDS011;2601;50.224;10.126;2023-05-06T14:42:40;154.63;;;13.53;;